createdAt,value
2023-03-29T00:00:35.540Z,11.67
2023-03-29T00:03:19.148Z,11.66
2023-03-29T00:05:49.554Z,11.65
2023-03-29T00:08:21.898Z,11.64
2023-03-29T00:10:53.794Z,11.63
2023-03-29T00:13:24.334Z,11.64
2023-03-29T00:15:55.828Z,11.63
2023-03-29T00:18:26.550Z,11.63
2023-03-29T00:20:57.947Z,11.63
2023-03-29T00:23:28.304Z,11.62
2023-03-29T00:25:59.193Z,11.63
2023-03-29T00:28:30.117Z,11.63
2023-03-29T00:31:08.495Z,11.63
2023-03-29T00:33:40.292Z,11.63
2023-03-29T00:36:14.458Z,11.62
2023-03-29T00:38:47.779Z,11.61
2023-03-29T00:41:17.998Z,11.60
2023-03-29T00:43:57.401Z,11.60
2023-03-29T00:46:29.869Z,11.58
2023-03-29T00:49:04.599Z,11.58
2023-03-29T00:51:36.313Z,11.56
2023-03-29T00:54:07.398Z,11.53
2023-03-29T00:56:39.485Z,11.50
2023-03-29T00:59:13.702Z,11.47
2023-03-29T01:01:50.486Z,11.46
2023-03-29T01:04:25.520Z,11.45
2023-03-29T01:07:00.258Z,11.44
2023-03-29T01:09:32.782Z,11.43
2023-03-29T01:12:06.750Z,11.42
2023-03-29T01:14:42.676Z,11.41
2023-03-29T01:17:13.193Z,11.41
2023-03-29T01:19:47.709Z,11.40
2023-03-29T01:22:25.756Z,11.39
2023-03-29T01:25:14.669Z,11.38
2023-03-29T01:28:01.402Z,11.38
2023-03-29T01:30:34.339Z,11.37
2023-03-29T01:33:07.266Z,11.35
2023-03-29T01:35:43.548Z,11.32
2023-03-29T01:38:18.447Z,11.30
2023-03-29T01:40:49.532Z,11.28
2023-03-29T01:43:25.283Z,11.27
2023-03-29T01:46:02.415Z,11.24
2023-03-29T01:48:34.151Z,11.22
2023-03-29T01:51:10.993Z,11.20
2023-03-29T01:53:41.741Z,11.19
2023-03-29T01:56:14.426Z,11.16
2023-03-29T01:58:48.007Z,11.14
2023-03-29T02:01:20.893Z,11.12
2023-03-29T02:03:54.353Z,11.09
2023-03-29T02:06:27.516Z,11.07
2023-03-29T02:08:58.084Z,11.05
2023-03-29T02:11:30.193Z,11.04
2023-03-29T02:14:00.881Z,11.01
2023-03-29T02:16:39.182Z,10.98
2023-03-29T02:19:11.982Z,10.96
2023-03-29T02:21:48.045Z,10.93
2023-03-29T02:24:19.869Z,10.91
2023-03-29T02:26:54.064Z,10.88
2023-03-29T02:29:26.065Z,10.87
2023-03-29T02:32:02.299Z,10.84
2023-03-29T02:34:37.541Z,10.81
2023-03-29T02:37:12.835Z,10.79
2023-03-29T02:39:51.537Z,10.78
2023-03-29T02:42:30.042Z,10.76
2023-03-29T02:45:06.372Z,10.76
2023-03-29T02:47:47.426Z,10.75
2023-03-29T02:50:22.786Z,10.74
2023-03-29T02:53:02.998Z,10.73
2023-03-29T02:55:41.610Z,10.71
2023-03-29T02:58:30.377Z,10.71
2023-03-29T03:01:14.814Z,10.71
2023-03-29T03:04:08.380Z,10.72
2023-03-29T03:07:05.880Z,10.72
2023-03-29T03:10:16.516Z,10.74
2023-03-29T03:13:25.239Z,10.76
2023-03-29T03:16:31.650Z,10.81
2023-03-29T03:19:22.096Z,10.85
2023-03-29T03:22:03.078Z,10.90
2023-03-29T03:24:41.563Z,10.94
2023-03-29T03:27:30.878Z,10.96
2023-03-29T03:30:17.295Z,11.00
2023-03-29T03:32:51.425Z,11.05
2023-03-29T03:35:32.373Z,11.11
2023-03-29T03:38:17.082Z,11.17
2023-03-29T03:40:55.572Z,11.25
2023-03-29T03:43:31.675Z,11.34
2023-03-29T03:46:04.982Z,11.42
2023-03-29T03:48:39.567Z,11.51
2023-03-29T03:51:13.562Z,11.58
2023-03-29T03:53:46.989Z,11.63
2023-03-29T03:56:20.248Z,11.68
2023-03-29T03:58:52.497Z,11.71
2023-03-29T04:01:24.637Z,11.78
2023-03-29T04:04:05.616Z,11.86
2023-03-29T04:06:42.480Z,11.94
2023-03-29T04:09:17.011Z,12.03
2023-03-29T04:12:06.027Z,12.17
2023-03-29T04:14:37.705Z,12.30
2023-03-29T04:17:11.948Z,12.43
2023-03-29T04:19:45.584Z,12.59
2023-03-29T04:22:25.808Z,13.05
2023-03-29T04:24:58.334Z,14.92
2023-03-29T04:27:29.067Z,17.53
2023-03-29T04:30:06.284Z,20.02
2023-03-29T04:32:42.686Z,22.21
2023-03-29T04:35:15.007Z,24.32
2023-03-29T04:37:52.268Z,26.25
2023-03-29T04:40:27.222Z,27.93
2023-03-29T04:43:02.368Z,29.42
2023-03-29T04:45:39.093Z,30.69
2023-03-29T04:48:16.050Z,32.15
2023-03-29T04:50:51.275Z,33.52
2023-03-29T04:53:26.522Z,34.89
2023-03-29T04:55:59.550Z,36.11
2023-03-29T04:58:32.507Z,36.54
2023-03-29T05:01:11.953Z,37.36
2023-03-29T05:03:49.479Z,38.24
2023-03-29T05:06:26.213Z,38.28
2023-03-29T05:09:01.189Z,38.98
2023-03-29T05:11:36.268Z,39.98
2023-03-29T05:14:09.360Z,40.98
2023-03-29T05:16:51.886Z,41.81
2023-03-29T05:19:25.240Z,42.80
2023-03-29T05:22:06.593Z,43.78
2023-03-29T05:24:44.214Z,44.39
2023-03-29T05:27:22.695Z,44.33
2023-03-29T05:30:22.659Z,44.54
2023-03-29T05:33:07.198Z,44.99
2023-03-29T05:35:44.171Z,45.76
2023-03-29T05:38:16.756Z,46.51
2023-03-29T05:40:49.871Z,47.03
2023-03-29T05:43:27.567Z,47.62
2023-03-29T05:46:03.764Z,48.26
2023-03-29T05:48:35.828Z,48.38
2023-03-29T05:51:10.070Z,48.33
2023-03-29T05:53:43.062Z,48.61
2023-03-29T05:56:15.737Z,48.93
2023-03-29T05:58:49.342Z,49.14
2023-03-29T06:01:22.263Z,49.33
2023-03-29T06:03:57.503Z,49.57
2023-03-29T06:06:27.896Z,49.85
2023-03-29T06:09:00.861Z,49.99
2023-03-29T06:11:33.079Z,50.07
2023-03-29T06:14:04.312Z,50.03
2023-03-29T06:16:36.240Z,49.95
2023-03-29T06:19:07.279Z,50.11
2023-03-29T06:21:37.620Z,50.37
2023-03-29T06:24:13.161Z,50.65
2023-03-29T06:26:43.868Z,51.06
2023-03-29T06:29:16.369Z,51.09
2023-03-29T06:31:50.530Z,51.04
2023-03-29T06:34:24.531Z,51.06
2023-03-29T06:36:56.289Z,51.45
2023-03-29T06:39:31.287Z,51.97
2023-03-29T06:42:10.103Z,52.54
2023-03-29T06:44:49.277Z,53.11
2023-03-29T06:47:18.492Z,53.36
2023-03-29T06:49:48.895Z,53.50
2023-03-29T06:52:19.573Z,53.44
2023-03-29T06:54:51.642Z,53.21
2023-03-29T06:57:21.222Z,53.06
2023-03-29T06:59:53.014Z,52.84
2023-03-29T07:02:25.299Z,52.57
2023-03-29T07:05:01.123Z,51.92
2023-03-29T07:07:55.370Z,51.52
2023-03-29T07:10:31.935Z,51.41
2023-03-29T07:13:03.640Z,51.47
2023-03-29T07:15:40.180Z,51.46
2023-03-29T07:18:15.963Z,51.21
2023-03-29T07:20:52.717Z,51.19
2023-03-29T07:23:25.592Z,51.28
2023-03-29T07:25:57.981Z,51.18
2023-03-29T07:28:29.666Z,51.04
2023-03-29T07:31:10.739Z,51.13
2023-03-29T07:33:44.832Z,51.32
2023-03-29T07:36:16.806Z,51.42
2023-03-29T07:38:55.145Z,51.36
2023-03-29T07:41:30.038Z,51.03
2023-03-29T07:44:05.210Z,51.03
2023-03-29T07:46:38.395Z,50.95
2023-03-29T07:49:22.036Z,51.23
2023-03-29T07:51:58.863Z,51.58
2023-03-29T07:54:34.632Z,51.72
2023-03-29T07:57:12.221Z,51.86
2023-03-29T07:59:45.689Z,51.61
2023-03-29T08:02:18.119Z,51.00
2023-03-29T08:05:12.093Z,49.31
2023-03-29T08:07:44.454Z,46.73
2023-03-29T08:10:32.209Z,46.09
2023-03-29T08:13:07.848Z,45.40
2023-03-29T08:15:41.849Z,43.28
2023-03-29T08:18:18.135Z,41.01
2023-03-29T08:20:48.911Z,38.98
2023-03-29T08:23:24.830Z,37.51
2023-03-29T08:25:57.010Z,36.03
2023-03-29T08:28:30.337Z,34.96
2023-03-29T08:31:04.831Z,34.07
2023-03-29T08:33:43.233Z,33.25
2023-03-29T08:36:19.091Z,32.36
2023-03-29T08:38:51.687Z,31.48
2023-03-29T08:41:33.077Z,30.64
2023-03-29T08:44:16.383Z,30.13
2023-03-29T08:46:54.437Z,29.75
2023-03-29T08:49:29.004Z,29.34
2023-03-29T08:52:03.665Z,28.92
2023-03-29T08:54:42.678Z,28.56
2023-03-29T08:57:31.664Z,28.19
2023-03-29T09:00:06.080Z,27.75
2023-03-29T09:02:38.126Z,27.33
2023-03-29T09:05:23.626Z,26.88
2023-03-29T09:07:55.070Z,26.40
2023-03-29T09:10:44.499Z,26.10
2023-03-29T09:13:26.367Z,25.86
2023-03-29T09:16:07.185Z,25.64
2023-03-29T09:18:55.807Z,25.32
2023-03-29T09:21:29.248Z,25.10
2023-03-29T09:24:27.852Z,24.91
2023-03-29T09:27:02.561Z,24.71
2023-03-29T09:30:03.477Z,24.54
2023-03-29T09:32:38.790Z,24.35
2023-03-29T09:35:19.172Z,24.31
2023-03-29T09:37:53.308Z,24.27
2023-03-29T09:40:29.391Z,24.22
2023-03-29T09:43:05.458Z,24.21
2023-03-29T09:45:38.108Z,24.14
2023-03-29T09:48:14.800Z,24.06
2023-03-29T09:50:49.533Z,24.02
2023-03-29T09:53:22.484Z,24.02
2023-03-29T09:55:55.075Z,24.07
2023-03-29T09:58:28.721Z,24.18
2023-03-29T10:01:03.587Z,24.39
2023-03-29T10:03:34.809Z,24.54
2023-03-29T10:06:11.924Z,24.63
2023-03-29T10:08:45.480Z,24.71
2023-03-29T10:11:22.989Z,24.70
2023-03-29T10:13:56.946Z,24.68
2023-03-29T10:16:42.455Z,24.62
2023-03-29T10:19:27.406Z,24.66
2023-03-29T10:21:59.901Z,24.81
2023-03-29T10:24:32.267Z,24.93
2023-03-29T10:27:16.985Z,24.90
2023-03-29T10:30:01.960Z,24.88
2023-03-29T10:32:35.603Z,24.92
2023-03-29T10:35:11.543Z,24.96
2023-03-29T10:37:46.274Z,24.97
2023-03-29T10:40:27.214Z,24.95
2023-03-29T10:43:01.569Z,24.99
2023-03-29T10:45:37.900Z,24.91
2023-03-29T10:48:15.335Z,24.78
2023-03-29T10:51:01.770Z,24.73
2023-03-29T10:53:37.761Z,24.73
2023-03-29T10:56:40.306Z,24.77
2023-03-29T10:59:27.096Z,24.82
2023-03-29T11:02:40.081Z,24.86
2023-03-29T11:05:20.686Z,24.94
2023-03-29T11:08:10.022Z,25.01
2023-03-29T11:10:50.468Z,25.01
2023-03-29T11:13:32.706Z,24.98
2023-03-29T11:16:18.114Z,24.93
2023-03-29T11:19:11.763Z,24.94
2023-03-29T11:21:46.561Z,25.04
2023-03-29T11:24:35.550Z,25.31
2023-03-29T11:27:23.154Z,25.54
2023-03-29T11:30:08.792Z,25.64
2023-03-29T11:32:47.568Z,25.71
2023-03-29T11:35:37.260Z,25.63
2023-03-29T11:38:17.058Z,25.47
2023-03-29T11:40:57.656Z,25.40
2023-03-29T11:43:31.922Z,25.35
2023-03-29T11:46:11.711Z,25.30
2023-03-29T11:48:48.352Z,25.24
2023-03-29T11:51:24.571Z,25.20
2023-03-29T11:54:01.479Z,25.07
2023-03-29T11:56:36.596Z,24.91
2023-03-29T11:59:14.510Z,24.77
2023-03-29T12:01:51.853Z,24.61
2023-03-29T12:04:26.767Z,24.48
2023-03-29T12:07:10.257Z,24.42
2023-03-29T12:09:42.755Z,24.47
2023-03-29T12:12:18.820Z,24.54
2023-03-29T12:15:01.558Z,24.58
2023-03-29T12:17:40.275Z,24.65
2023-03-29T12:20:20.592Z,24.74
2023-03-29T12:22:52.024Z,24.83
2023-03-29T12:25:27.553Z,24.87
2023-03-29T12:28:20.065Z,24.85
2023-03-29T12:31:00.228Z,24.72
2023-03-29T12:33:52.967Z,24.62
2023-03-29T12:36:44.459Z,24.57
2023-03-29T12:39:19.192Z,24.51
2023-03-29T12:41:54.136Z,24.45
2023-03-29T12:44:27.559Z,24.42
2023-03-29T12:47:02.751Z,24.39
2023-03-29T12:49:45.200Z,24.36
2023-03-29T12:52:29.874Z,24.31
2023-03-29T12:55:19.062Z,24.23
2023-03-29T12:58:05.701Z,24.11
2023-03-29T13:00:46.446Z,24.01
2023-03-29T13:03:47.174Z,23.97
2023-03-29T13:07:04.495Z,23.91
2023-03-29T13:09:50.971Z,23.80
2023-03-29T13:12:27.458Z,23.78
2023-03-29T13:15:05.432Z,23.81
2023-03-29T13:17:48.494Z,23.80
2023-03-29T13:20:38.786Z,23.80
2023-03-29T13:23:26.464Z,23.81
2023-03-29T13:26:24.107Z,23.78
2023-03-29T13:29:12.945Z,23.75
2023-03-29T13:32:04.553Z,23.73
2023-03-29T13:34:50.458Z,23.70
2023-03-29T13:37:31.895Z,23.65
2023-03-29T13:40:27.522Z,23.63
2023-03-29T13:43:20.378Z,23.63
2023-03-29T13:46:26.901Z,23.60
2023-03-29T13:49:01.406Z,23.56
2023-03-29T13:54:59.188Z,23.55
2023-03-29T13:57:49.004Z,23.54
2023-03-29T14:00:28.483Z,23.44
2023-03-29T14:03:06.031Z,22.99
2023-03-29T14:05:50.789Z,22.33
2023-03-29T14:10:29.240Z,21.23
2023-03-29T14:13:05.264Z,20.65
2023-03-29T14:15:47.364Z,20.15
2023-03-29T14:18:24.040Z,19.68
2023-03-29T14:20:56.938Z,19.21
2023-03-29T14:23:32.680Z,18.76
2023-03-29T14:26:16.574Z,18.41
2023-03-29T14:28:52.015Z,18.15
2023-03-29T14:31:31.902Z,17.96
2023-03-29T14:34:07.406Z,17.73
2023-03-29T14:36:44.023Z,17.58
2023-03-29T14:39:18.431Z,17.37
2023-03-29T14:41:54.588Z,17.06
2023-03-29T14:44:30.443Z,16.84
2023-03-29T14:47:07.282Z,16.62
2023-03-29T14:49:41.853Z,16.42
2023-03-29T14:52:16.985Z,16.30
2023-03-29T14:54:52.470Z,16.11
2023-03-29T14:57:29.490Z,15.90
2023-03-29T15:00:16.235Z,15.75
2023-03-29T15:02:59.029Z,15.61
2023-03-29T15:05:41.581Z,15.44
2023-03-29T15:08:22.803Z,15.28
2023-03-29T15:11:00.471Z,15.13
2023-03-29T15:13:35.897Z,15.05
2023-03-29T15:16:13.531Z,15.04
2023-03-29T15:18:55.409Z,14.98
2023-03-29T15:21:33.934Z,14.91
2023-03-29T15:24:19.418Z,14.85
2023-03-29T15:27:06.001Z,14.82
2023-03-29T15:29:43.880Z,14.81
2023-03-29T15:32:26.622Z,14.79
2023-03-29T15:35:06.163Z,14.80
2023-03-29T15:37:40.288Z,14.80
2023-03-29T15:40:19.237Z,14.77
2023-03-29T15:42:54.336Z,14.76
2023-03-29T15:45:28.695Z,14.75
2023-03-29T15:48:06.068Z,14.77
2023-03-29T15:50:40.208Z,14.77
2023-03-29T15:53:15.801Z,14.77
2023-03-29T15:55:53.532Z,14.79
2023-03-29T15:58:30.182Z,14.83
2023-03-29T16:01:11.609Z,14.88
2023-03-29T16:03:48.019Z,14.92
2023-03-29T16:06:24.558Z,14.98
2023-03-29T16:08:58.662Z,15.02
2023-03-29T16:11:33.282Z,15.06
2023-03-29T16:14:12.345Z,15.08
2023-03-29T16:16:46.362Z,15.06
2023-03-29T16:19:20.787Z,15.05
2023-03-29T16:21:55.944Z,15.05
2023-03-29T16:24:31.819Z,14.99
2023-03-29T16:27:05.530Z,14.94
2023-03-29T16:29:39.728Z,14.92
2023-03-29T16:32:15.031Z,14.91
2023-03-29T16:34:49.399Z,14.83
2023-03-29T16:37:28.996Z,14.73
2023-03-29T16:40:03.177Z,14.64
2023-03-29T16:42:37.185Z,14.56
2023-03-29T16:45:16.180Z,14.45
2023-03-29T16:47:51.191Z,14.35
2023-03-29T16:50:26.335Z,14.23
2023-03-29T16:53:00.854Z,14.10
2023-03-29T16:55:35.236Z,14.02
2023-03-29T16:58:11.858Z,13.94
2023-03-29T17:00:48.476Z,13.87
2023-03-29T17:03:22.946Z,13.75
2023-03-29T17:05:58.512Z,13.62
2023-03-29T17:08:32.893Z,13.51
2023-03-29T17:11:08.146Z,13.45
2023-03-29T17:13:42.591Z,13.46
2023-03-29T17:16:19.200Z,13.48
2023-03-29T17:18:53.476Z,13.47
2023-03-29T17:21:29.712Z,13.47
2023-03-29T17:24:07.573Z,13.47
2023-03-29T17:26:43.251Z,13.45
2023-03-29T17:29:18.578Z,13.42
2023-03-29T17:31:52.817Z,13.40
2023-03-29T17:34:29.519Z,13.38
2023-03-29T17:37:04.273Z,13.33
2023-03-29T17:39:42.626Z,13.29
2023-03-29T17:42:17.718Z,13.27
2023-03-29T17:44:51.566Z,13.23
2023-03-29T17:47:25.826Z,13.23
2023-03-29T17:49:59.980Z,13.20
2023-03-29T17:52:35.801Z,13.16
2023-03-29T17:55:13.989Z,13.14
2023-03-29T17:57:53.972Z,13.12
2023-03-29T18:00:28.237Z,13.11
2023-03-29T18:03:03.594Z,13.11
2023-03-29T18:05:38.972Z,13.11
2023-03-29T18:08:14.122Z,13.13
2023-03-29T18:10:52.756Z,13.14
2023-03-29T18:13:27.988Z,13.17
2023-03-29T18:16:07.489Z,13.20
2023-03-29T18:18:42.060Z,13.22
2023-03-29T18:21:16.634Z,13.24
2023-03-29T18:23:53.858Z,13.23
2023-03-29T18:26:30.302Z,13.22
2023-03-29T18:29:04.226Z,13.20
2023-03-29T18:31:40.871Z,13.18
2023-03-29T18:34:13.384Z,13.17
2023-03-29T18:36:51.259Z,13.14
2023-03-29T18:39:28.247Z,13.12
2023-03-29T18:42:02.211Z,13.12
2023-03-29T18:44:37.758Z,13.12
2023-03-29T18:47:20.129Z,13.12
2023-03-29T18:49:58.484Z,13.11
2023-03-29T18:52:34.787Z,13.10
2023-03-29T18:55:10.858Z,13.08
2023-03-29T18:57:45.203Z,13.05
2023-03-29T19:00:20.708Z,12.98
2023-03-29T19:02:55.591Z,12.90
2023-03-29T19:05:30.174Z,12.86
2023-03-29T19:08:11.773Z,12.75
2023-03-29T19:10:46.391Z,12.59
2023-03-29T19:13:24.777Z,12.44
2023-03-29T19:15:58.909Z,12.33
2023-03-29T19:18:34.695Z,12.22
2023-03-29T19:21:09.087Z,12.14
2023-03-29T19:23:44.072Z,12.08
2023-03-29T19:26:19.904Z,12.02
2023-03-29T19:28:54.085Z,11.95
2023-03-29T19:31:28.610Z,11.88
2023-03-29T19:34:07.204Z,11.75
2023-03-29T19:36:43.401Z,11.60
2023-03-29T19:39:17.465Z,11.49
2023-03-29T19:41:51.960Z,11.42
2023-03-29T19:44:26.089Z,11.36
2023-03-29T19:47:01.838Z,11.31
2023-03-29T19:49:36.856Z,11.30
2023-03-29T19:52:24.531Z,11.31
2023-03-29T19:54:59.012Z,11.32
2023-03-29T19:57:34.107Z,11.33
2023-03-29T20:00:10.816Z,11.33
2023-03-29T20:02:46.581Z,11.28
2023-03-29T20:05:23.296Z,11.20
2023-03-29T20:07:57.951Z,11.16
2023-03-29T20:10:34.476Z,11.13
2023-03-29T20:13:10.475Z,11.06
2023-03-29T20:15:44.694Z,10.96
2023-03-29T20:18:18.926Z,10.89
2023-03-29T20:20:54.006Z,10.82
2023-03-29T20:23:32.327Z,10.77
2023-03-29T20:26:10.314Z,10.71
2023-03-29T20:28:44.568Z,10.65
2023-03-29T20:31:22.790Z,10.55
2023-03-29T20:33:57.638Z,10.45
2023-03-29T20:36:33.679Z,10.36
2023-03-29T20:39:19.066Z,10.27
2023-03-29T20:42:10.679Z,10.17
2023-03-29T20:45:01.142Z,10.09
2023-03-29T20:47:44.178Z,10.00
2023-03-29T20:50:19.788Z,9.92
2023-03-29T20:52:54.874Z,9.81
2023-03-29T20:55:31.061Z,9.73
2023-03-29T20:58:07.998Z,9.68
2023-03-29T21:00:43.642Z,9.60
2023-03-29T21:03:18.799Z,9.54
2023-03-29T21:05:58.893Z,9.50
2023-03-29T21:08:32.961Z,9.47
2023-03-29T21:11:09.585Z,9.46
2023-03-29T21:13:44.751Z,9.42
2023-03-29T21:16:18.686Z,9.36
2023-03-29T21:18:53.107Z,9.29
2023-03-29T21:21:27.277Z,9.22
2023-03-29T21:24:02.846Z,9.17
2023-03-29T21:26:37.754Z,9.12
2023-03-29T21:29:12.000Z,9.10
2023-03-29T21:31:46.271Z,9.03
2023-03-29T21:34:23.157Z,9.00
2023-03-29T21:36:55.431Z,8.96
2023-03-29T21:39:31.538Z,8.91
2023-03-29T21:42:05.616Z,8.89
2023-03-29T21:44:39.386Z,8.87
2023-03-29T21:47:13.304Z,8.85
2023-03-29T21:49:48.177Z,8.78
2023-03-29T21:52:22.119Z,8.69
2023-03-29T21:54:55.992Z,8.61
2023-03-29T21:57:30.046Z,8.57
2023-03-29T22:00:05.702Z,8.49
2023-03-29T22:02:39.800Z,8.40
2023-03-29T22:05:14.228Z,8.36
2023-03-29T22:07:50.972Z,8.34
2023-03-29T22:10:24.867Z,8.27
2023-03-29T22:12:58.762Z,8.19
2023-03-29T22:15:36.082Z,8.12
2023-03-29T22:18:10.818Z,8.04
2023-03-29T22:20:45.437Z,7.93
2023-03-29T22:23:19.282Z,7.87
2023-03-29T22:25:53.130Z,7.84
2023-03-29T22:28:28.995Z,7.84
2023-03-29T22:31:07.417Z,7.77
2023-03-29T22:33:46.934Z,7.68
2023-03-29T22:36:22.549Z,7.62
2023-03-29T22:38:57.849Z,7.58
2023-03-29T22:41:31.887Z,7.55
2023-03-29T22:44:06.201Z,7.47
2023-03-29T22:46:39.947Z,7.42
2023-03-29T22:49:13.624Z,7.36
2023-03-29T22:51:47.526Z,7.28
2023-03-29T22:54:21.239Z,7.21
2023-03-29T22:56:55.657Z,7.19
2023-03-29T22:59:31.644Z,7.20
2023-03-29T23:02:05.809Z,7.20
2023-03-29T23:04:39.704Z,7.23
2023-03-29T23:07:14.231Z,7.24
2023-03-29T23:09:47.923Z,7.21
2023-03-29T23:12:21.642Z,7.11
2023-03-29T23:14:56.381Z,6.98
2023-03-29T23:17:30.816Z,6.85
2023-03-29T23:20:06.814Z,6.73
2023-03-29T23:22:40.713Z,6.60
2023-03-29T23:25:14.926Z,6.48
2023-03-29T23:27:48.973Z,6.43
2023-03-29T23:30:24.345Z,6.41
2023-03-29T23:32:58.595Z,6.39
2023-03-29T23:35:32.761Z,6.39
2023-03-29T23:38:09.805Z,6.41
2023-03-29T23:40:43.170Z,6.41
2023-03-29T23:43:17.494Z,6.44
2023-03-29T23:45:52.678Z,6.46
2023-03-29T23:48:26.443Z,6.46
2023-03-29T23:51:01.567Z,6.50
2023-03-29T23:53:35.762Z,6.57
2023-03-29T23:56:10.619Z,6.60
2023-03-29T23:58:45.067Z,6.60
